Time;durP1;ratioP1;P1;durP2;ratioP2;P2;SDS_P1;SDS_P2;PMS_P1;PMS_P2;Temp;Humidity;BMP_temperature;BMP_pressure;BME280_temperature;BME280_humidity;BME280_pressure;Samples;Min_cycle;Max_cycle;Signal;HPM_P1;HPM_P2
2022/01/23 00:01:11;;;;;;;4.93;2.30;;;;;;;4.47;100.00;103047.19;6248032;28;20053;-76
2022/01/23 00:04:12;;;;;;;4.70;2.17;;;;;;;4.41;100.00;103046.28;6247866;28;20045;-76
2022/01/23 00:07:15;;;;;;;10.55;1.83;;;;;;;4.38;100.00;103043.66;6247814;28;20053;-76
2022/01/23 00:10:16;;;;;;;7.05;2.65;;;;;;;4.38;100.00;103047.13;6254073;28;20126;-76
2022/01/23 00:13:26;;;;;;;3.00;2.17;;;;;;;4.38;100.00;103047.13;6272641;28;20048;-77
2022/01/23 00:19:50;;;;;;;5.28;2.55;;;;;;;4.36;100.00;103054.06;6272857;28;20053;-76
2022/01/23 00:22:55;;;;;;;5.22;2.40;;;;;;;4.35;100.00;103051.41;6272808;28;20044;-76
2022/01/23 00:32:36;;;;;;;3.05;2.10;;;;;;;4.39;100.00;103045.38;6260783;28;20125;-76
2022/01/23 00:35:39;;;;;;;4.40;2.22;;;;;;;4.41;100.00;103048.91;6247027;28;20056;-76
2022/01/23 00:38:40;;;;;;;4.30;2.60;;;;;;;4.31;100.00;103046.19;6247926;28;20041;-76
2022/01/23 00:41:42;;;;;;;4.60;2.28;;;;;;;4.29;100.00;103040.09;6255778;28;20052;-76
2022/01/23 00:44:46;;;;;;;5.32;3.38;;;;;;;4.26;100.00;103042.66;6266964;28;20044;-76
2022/01/23 00:47:50;;;;;;;4.72;2.28;;;;;;;4.28;100.00;103034.88;6260010;28;20041;-76
2022/01/23 00:50:51;;;;;;;5.05;1.85;;;;;;;4.17;100.00;103024.34;6247309;28;20579;-76
2022/01/23 00:53:53;;;;;;;4.28;2.55;;;;;;;4.17;100.00;103023.47;6259625;28;20412;-76
2022/01/23 00:56:54;;;;;;;5.43;3.10;;;;;;;4.11;100.00;103029.50;6248054;28;20056;-76
2022/01/23 00:59:55;;;;;;;4.45;2.22;;;;;;;4.11;100.00;103036.44;6246997;28;20440;-77
2022/01/23 01:02:59;;;;;;;3.80;1.92;;;;;;;4.11;100.00;103026.91;6246718;28;20041;-76
2022/01/23 01:06:00;;;;;;;6.25;3.25;;;;;;;4.13;100.00;103037.31;6246750;28;20045;-76
2022/01/23 01:09:05;;;;;;;7.55;2.35;;;;;;;4.12;100.00;103040.78;6250131;28;20049;-76
2022/01/23 01:12:09;;;;;;;4.75;2.42;;;;;;;4.11;100.00;103041.63;6255188;28;20046;-76
2022/01/23 01:32:05;;;;;;;10.85;2.67;;;;;;;4.06;100.00;103018.19;6242503;28;20049;-76
2022/01/23 01:35:20;;;;;;;4.72;2.45;;;;;;;4.01;100.00;103019.88;6266110;28;20072;-76
2022/01/23 01:38:21;;;;;;;7.35;2.92;;;;;;;4.00;100.00;103025.94;6271459;28;20132;-76
2022/01/23 01:41:23;;;;;;;3.90;2.40;;;;;;;4.00;100.00;103032.00;6271301;28;20052;-76
2022/01/23 01:44:24;;;;;;;7.22;3.67;;;;;;;4.03;100.00;103039.81;6271332;28;20052;-76
2022/01/23 01:47:26;;;;;;;4.47;2.30;;;;;;;4.04;100.00;103049.41;6275846;28;20532;-77
2022/01/23 01:50:30;;;;;;;5.40;2.55;;;;;;;4.07;100.00;103052.00;6276230;28;20389;-77
2022/01/23 01:53:31;;;;;;;4.47;2.63;;;;;;;4.08;100.00;103051.16;6276434;28;20049;-77
2022/01/23 01:56:39;;;;;;;3.92;2.35;;;;;;;4.12;100.00;103051.19;6260995;28;20519;-76
2022/01/23 02:00:11;;;;;;;7.25;3.00;;;;;;;4.08;100.00;103053.75;6251729;28;20053;-77
2022/01/23 02:08:17;;;;;;;6.20;2.97;;;;;;;4.05;100.00;103065.88;6250818;28;20055;-76
2022/01/23 02:10:19;;;;;;;9.37;3.37;;;;;;;3.97;100.00;103070.09;6214849;28;20479;-76
2022/01/23 02:13:25;;;;;;;5.70;2.45;;;;;;;3.97;100.00;103075.31;6251301;28;20296;-77
2022/01/23 02:23:28;;;;;;;5.75;2.75;;;;;;;4.01;100.00;103062.34;6250876;28;20053;-77
2022/01/23 02:53:31;;;;;;;5.53;3.08;;;;;;;4.00;100.00;103063.22;6250292;28;20128;-76
2022/01/23 02:56:36;;;;;;;6.82;2.65;;;;;;;4.03;100.00;103059.75;6250058;28;20421;-76
2022/01/23 02:59:39;;;;;;;7.80;3.28;;;;;;;3.98;100.00;103056.25;6250082;28;20140;-76
2022/01/23 03:02:44;;;;;;;6.95;3.00;;;;;;;3.94;100.00;103044.91;6249779;28;20053;-76
2022/01/23 03:05:46;;;;;;;3.65;1.92;;;;;;;3.94;100.00;103055.31;6249291;28;20053;-77
2022/01/23 03:09:19;;;;;;;5.28;3.17;;;;;;;3.95;100.00;103056.19;6247460;28;20488;-76
2022/01/23 03:13:20;;;;;;;5.60;2.45;;;;;;;3.94;100.00;103065.72;6236508;28;20436;-76
2022/01/23 03:24:02;;;;;;;11.35;3.03;;;;;;;3.97;100.00;103070.09;6249339;28;20492;-76
2022/01/23 03:26:25;;;;;;;7.55;3.28;;;;;;;4.04;100.00;103078.00;6249693;28;20057;-76
2022/01/23 03:29:28;;;;;;;5.95;3.30;;;;;;;4.04;100.00;103069.31;6249273;28;20144;-76
2022/01/23 03:32:36;;;;;;;6.30;3.03;;;;;;;4.04;100.00;103059.81;6249160;28;20050;-76
2022/01/23 03:35:37;;;;;;;6.43;2.95;;;;;;;4.04;100.00;103062.41;6248728;28;20408;-76
2022/01/23 03:38:39;;;;;;;5.75;2.88;;;;;;;4.03;100.00;103052.81;6249330;28;20049;-76
2022/01/23 03:41:44;;;;;;;7.43;3.75;;;;;;;4.02;100.00;103061.50;6249135;28;20045;-76
2022/01/23 03:45:02;;;;;;;4.80;2.83;;;;;;;4.01;100.00;103058.88;6249076;28;20060;-76
2022/01/23 03:49:31;;;;;;;5.78;2.72;;;;;;;3.97;100.00;103059.72;6249286;28;20072;-76
2022/01/23 03:51:38;;;;;;;3.67;1.98;;;;;;;3.94;100.00;103057.94;6248460;28;20045;-76
2022/01/23 03:54:40;;;;;;;3.85;2.50;;;;;;;3.90;100.00;103063.06;6249061;28;20041;-76
2022/01/23 03:57:42;;;;;;;4.10;2.35;;;;;;;3.88;100.00;103068.28;6248683;28;20432;-76
2022/01/23 04:00:44;;;;;;;5.82;2.50;;;;;;;3.86;100.00;103061.28;6248585;28;20053;-76
2022/01/23 04:03:45;;;;;;;3.60;2.53;;;;;;;3.82;100.00;103063.00;6247980;28;20516;-75
2022/01/23 04:06:47;;;;;;;6.60;2.85;;;;;;;3.87;100.00;103065.66;6248030;28;20049;-76
2022/01/23 04:09:49;;;;;;;4.95;1.85;;;;;;;3.88;100.00;103067.41;6246860;28;20048;-76
2022/01/23 04:12:55;;;;;;;5.50;2.92;;;;;;;3.87;100.00;103063.94;6247739;28;20497;-76
2022/01/23 04:16:12;;;;;;;7.13;2.10;;;;;;;3.79;100.00;103056.03;6248254;28;20107;-76
2022/01/23 04:19:30;;;;;;;3.50;2.35;;;;;;;3.80;100.00;103062.09;6248424;28;20485;-76
2022/01/23 04:32:46;;;;;;;4.05;2.42;;;;;;;3.79;100.00;103068.16;6247714;28;20053;-76
2022/01/23 04:45:51;;;;;;;6.53;3.40;;;;;;;3.81;100.00;103066.44;6247740;28;20071;-76
2022/01/23 04:59:31;;;;;;;6.05;3.47;;;;;;;3.82;100.00;103076.00;6247781;28;20056;-76
2022/01/23 05:02:41;;;;;;;9.20;3.33;;;;;;;3.83;100.00;103071.69;6246858;28;20440;-76
2022/01/23 05:05:38;;;;;;;8.30;4.35;;;;;;;3.82;100.00;103078.63;6246585;28;20053;-76
2022/01/23 05:08:39;;;;;;;8.80;3.72;;;;;;;3.84;100.00;103084.69;6245079;28;20049;-76
2022/01/23 05:11:48;;;;;;;7.80;3.50;;;;;;;3.83;100.00;103089.88;6245587;28;20053;-76
2022/01/23 05:14:49;;;;;;;4.45;2.33;;;;;;;3.83;100.00;103095.09;6246783;28;20681;-76
2022/01/23 05:17:52;;;;;;;10.38;3.53;;;;;;;3.83;100.00;103098.56;6247117;28;20056;-76
2022/01/23 05:21:04;;;;;;;5.43;2.72;;;;;;;3.88;100.00;103096.00;6246293;28;20049;-76
2022/01/23 05:24:06;;;;;;;5.40;2.97;;;;;;;3.89;100.00;103103.81;6246915;28;20122;-76
2022/01/23 05:27:10;;;;;;;5.88;2.95;;;;;;;3.88;100.00;103099.47;6246882;28;20060;-76
2022/01/23 05:30:12;;;;;;;5.55;3.10;;;;;;;3.90;100.00;103097.75;6246536;28;20512;-76
2022/01/23 05:33:16;;;;;;;7.03;3.42;;;;;;;3.92;100.00;103101.28;6245356;28;20053;-75
2022/01/23 05:36:17;;;;;;;8.73;4.38;;;;;;;3.92;100.00;103090.88;6246672;28;20429;-76
2022/01/23 05:39:22;;;;;;;5.80;3.28;;;;;;;3.90;100.00;103086.50;6246944;28;20049;-76
2022/01/23 05:42:23;;;;;;;10.88;3.15;;;;;;;3.90;100.00;103081.28;6246300;28;20191;-76
2022/01/23 05:45:25;;;;;;;4.85;2.35;;;;;;;3.90;100.00;103082.16;6246931;28;20053;-76
2022/01/23 05:48:27;;;;;;;5.63;3.42;;;;;;;3.91;100.00;103091.72;6246565;28;20057;-76
2022/01/23 05:51:28;;;;;;;7.97;3.67;;;;;;;3.94;100.00;103096.94;6246727;28;20555;-76
2022/01/23 05:54:30;;;;;;;5.68;2.95;;;;;;;3.95;100.00;103092.63;6246390;28;20045;-76
2022/01/23 05:57:31;;;;;;;8.63;3.28;;;;;;;3.93;100.00;103102.13;6246475;28;20072;-76
2022/01/23 06:00:33;;;;;;;6.35;2.55;;;;;;;3.90;100.00;103105.56;6246344;28;20057;-76
2022/01/23 06:03:35;;;;;;;7.38;3.85;;;;;;;3.91;100.00;103112.53;6246201;28;20493;-76
2022/01/23 06:06:37;;;;;;;7.57;3.80;;;;;;;3.86;100.00;103103.81;6246511;28;20045;-76
2022/01/23 06:09:40;;;;;;;6.65;3.22;;;;;;;3.89;100.00;103113.34;6246330;28;20057;-76
2022/01/23 06:12:42;;;;;;;4.78;2.45;;;;;;;3.90;100.00;103118.56;6246285;28;20053;-76
2022/01/23 06:15:43;;;;;;;7.78;3.55;;;;;;;3.95;100.00;103121.22;6246063;28;20084;-76
2022/01/23 06:18:46;;;;;;;5.93;2.58;;;;;;;3.99;100.00;103126.50;6246484;28;20053;-76
2022/01/23 06:21:47;;;;;;;4.88;2.92;;;;;;;3.93;100.00;103121.22;6246036;28;20061;-76
2022/01/23 06:24:50;;;;;;;4.38;2.33;;;;;;;3.92;100.00;103127.28;6246296;28;20068;-76
2022/01/23 06:27:51;;;;;;;6.00;3.38;;;;;;;3.90;100.00;103121.16;6246146;28;20056;-75
2022/01/23 06:30:53;;;;;;;6.65;4.05;;;;;;;3.89;100.00;103127.22;6245781;28;20041;-76
2022/01/23 06:33:57;;;;;;;3.85;2.65;;;;;;;3.92;100.00;103132.47;6248668;28;20072;-76
2022/01/23 06:36:58;;;;;;;5.53;2.67;;;;;;;3.92;100.00;103134.22;6250648;28;20103;-76
2022/01/23 06:40:00;;;;;;;5.72;2.90;;;;;;;3.87;100.00;103141.09;6249352;28;20049;-76
2022/01/23 06:43:01;;;;;;;6.43;3.90;;;;;;;3.88;100.00;103146.31;6250397;28;20046;-76
2022/01/23 06:46:03;;;;;;;5.68;3.92;;;;;;;3.89;100.00;103137.63;6248924;28;20124;-75
2022/01/23 06:49:05;;;;;;;8.63;3.28;;;;;;;3.86;100.00;103139.31;6250045;28;20037;-76
2022/01/23 06:52:07;;;;;;;5.97;3.22;;;;;;;3.87;100.00;103134.16;6250028;28;20053;-76
2022/01/23 06:55:09;;;;;;;6.13;2.60;;;;;;;3.90;100.00;103136.78;6250094;28;20042;-76
2022/01/23 06:58:11;;;;;;;5.43;3.15;;;;;;;3.94;100.00;103148.09;6250209;28;20056;-76
2022/01/23 07:01:12;;;;;;;5.75;3.03;;;;;;;3.92;100.00;103142.88;6249911;28;20061;-76
2022/01/23 07:04:15;;;;;;;7.45;3.92;;;;;;;3.95;100.00;103144.63;6249663;28;20060;-76
2022/01/23 07:07:16;;;;;;;7.30;3.60;;;;;;;3.93;100.00;103155.03;6248283;28;20052;-76
2022/01/23 07:10:19;;;;;;;6.30;3.60;;;;;;;3.94;100.00;103154.19;6249677;28;20060;-76
2022/01/23 07:13:20;;;;;;;5.80;3.28;;;;;;;3.93;100.00;103151.56;6247737;28;20057;-76
2022/01/23 07:16:21;;;;;;;5.82;3.38;;;;;;;3.93;100.00;103155.03;6225335;28;20045;-76
2022/01/23 07:19:24;;;;;;;6.75;3.78;;;;;;;3.88;100.00;103154.09;6224997;28;20050;-76
2022/01/23 07:22:25;;;;;;;5.82;3.08;;;;;;;3.88;100.00;103161.03;6224740;28;20057;-76
2022/01/23 07:25:27;;;;;;;7.13;3.08;;;;;;;3.92;100.00;103162.84;6245899;28;20045;-76
2022/01/23 07:28:37;;;;;;;8.32;4.30;;;;;;;3.97;100.00;103158.56;6248464;28;20057;-76
2022/01/23 07:31:56;;;;;;;6.90;3.75;;;;;;;3.97;100.00;103168.97;6246040;28;20517;-76
2022/01/23 07:34:59;;;;;;;6.65;3.30;;;;;;;3.92;100.00;103170.63;6248249;28;20136;-76
2022/01/23 07:38:00;;;;;;;10.90;4.47;;;;;;;3.99;100.00;103169.84;6249259;28;20516;-76
2022/01/23 07:41:02;;;;;;;11.48;4.97;;;;;;;3.99;100.00;103175.03;6247980;28;20037;-76
2022/01/23 07:44:04;;;;;;;8.57;4.10;;;;;;;4.02;100.00;103175.97;6247639;28;20045;-76
2022/01/23 07:47:06;;;;;;;8.98;4.20;;;;;;;4.02;100.00;103177.69;6248923;28;20052;-76
2022/01/23 07:50:10;;;;;;;7.78;4.18;;;;;;;4.02;100.00;103175.97;6248780;28;20153;-76
2022/01/23 07:53:11;;;;;;;8.07;4.38;;;;;;;3.98;100.00;103173.31;6248872;28;20501;-76
2022/01/23 07:56:12;;;;;;;9.23;4.50;;;;;;;4.00;100.00;103169.88;6248944;28;20057;-76
2022/01/23 07:59:14;;;;;;;13.95;4.32;;;;;;;4.00;100.00;103174.22;6248802;28;20053;-76
2022/01/23 08:02:15;;;;;;;9.05;4.68;;;;;;;4.02;100.00;103185.50;6247476;28;20049;-75
2022/01/23 08:05:18;;;;;;;7.93;5.00;;;;;;;4.01;100.00;103188.97;6248713;28;20531;-76
2022/01/23 08:08:19;;;;;;;10.80;4.70;;;;;;;4.05;100.00;103190.75;6248676;28;20060;-76
2022/01/23 08:11:22;;;;;;;10.73;4.28;;;;;;;4.05;100.00;103201.16;6248274;28;20053;-75
2022/01/23 08:14:23;;;;;;;11.00;4.22;;;;;;;4.07;100.00;103200.31;6248268;28;20059;-76
2022/01/23 08:17:25;;;;;;;14.23;4.50;;;;;;;4.10;100.00;103204.69;6248137;28;20404;-76
2022/01/23 08:20:28;;;;;;;13.32;5.45;;;;;;;4.14;100.00;103206.50;6247925;28;20049;-76
2022/01/23 08:23:29;;;;;;;10.70;4.97;;;;;;;4.14;100.00;103203.00;6248036;28;20049;-76
2022/01/23 08:26:30;;;;;;;9.50;5.05;;;;;;;4.15;100.00;103207.34;6247884;28;20045;-76
2022/01/23 08:29:32;;;;;;;10.48;4.93;;;;;;;4.20;100.00;103216.09;6247856;28;20052;-76
2022/01/23 08:32:33;;;;;;;8.73;4.45;;;;;;;4.20;100.00;103219.56;6247127;28;20056;-75
2022/01/23 08:35:36;;;;;;;8.25;4.78;;;;;;;4.20;100.00;103219.56;6247825;28;20048;-75
2022/01/23 08:38:38;;;;;;;12.90;4.50;;;;;;;4.24;100.00;103229.16;6247763;28;20421;-75
2022/01/23 08:41:51;;;;;;;9.23;4.28;;;;;;;4.27;100.00;103226.63;6247614;28;20054;-76
2022/01/23 08:44:53;;;;;;;13.18;4.50;;;;;;;4.30;100.00;103234.44;6247429;28;20053;-77
2022/01/23 08:47:55;;;;;;;8.35;3.55;;;;;;;4.33;100.00;103238.81;6252325;28;20072;-75
2022/01/23 08:50:58;;;;;;;8.68;3.90;;;;;;;4.35;100.00;103241.44;6263740;28;20496;-76
2022/01/23 08:53:59;;;;;;;5.88;3.63;;;;;;;4.32;100.00;103235.34;6272281;28;20056;-75
2022/01/23 08:57:00;;;;;;;5.78;3.35;;;;;;;4.39;100.00;103243.22;6270624;28;20045;-75
2022/01/23 09:00:02;;;;;;;9.75;4.50;;;;;;;4.41;100.00;103252.81;6245271;28;20072;-76
2022/01/23 09:03:04;;;;;;;8.43;4.25;;;;;;;4.45;100.00;103257.22;6246937;28;20045;-76
2022/01/23 09:06:07;;;;;;;6.43;4.25;;;;;;;4.44;100.00;103249.34;6252063;28;20040;-76
2022/01/23 09:09:15;;;;;;;9.55;4.15;;;;;;;4.45;100.00;103257.22;6255514;28;20049;-76
2022/01/23 09:12:30;;;;;;;11.88;4.15;;;;;;;4.50;100.00;103249.47;6241748;28;20178;-76
2022/01/23 09:15:32;;;;;;;10.10;5.60;;;;;;;4.50;100.00;103242.50;6240321;28;20041;-76
2022/01/23 09:18:34;;;;;;;8.70;4.45;;;;;;;4.49;100.00;103255.50;6246725;28;20060;-76
2022/01/23 09:21:38;;;;;;;9.10;4.45;;;;;;;4.51;100.00;103254.69;6246282;28;20042;-76
2022/01/23 09:24:39;;;;;;;9.73;5.05;;;;;;;4.52;100.00;103261.63;6246680;28;20057;-76
2022/01/23 09:27:41;;;;;;;10.15;5.00;;;;;;;4.56;100.00;103255.59;6246940;28;20513;-76
2022/01/23 09:30:45;;;;;;;10.60;4.82;;;;;;;4.58;100.00;103248.66;6245888;28;20079;-76
2022/01/23 09:33:46;;;;;;;10.60;4.85;;;;;;;4.57;100.00;103254.72;6246417;28;20057;-78
2022/01/23 09:36:50;;;;;;;11.00;4.97;;;;;;;4.59;100.00;103257.38;6246611;28;20413;-76
2022/01/23 09:39:51;;;;;;;11.43;4.63;;;;;;;4.60;100.00;103253.91;6245420;28;20129;-78
2022/01/23 09:42:59;;;;;;;11.15;5.18;;;;;;;4.65;100.00;103260.03;6246668;28;20413;-77
2022/01/23 09:46:05;;;;;;;10.70;4.38;;;;;;;4.67;100.00;103263.53;6246605;28;20042;-77
2022/01/23 09:49:07;;;;;;;10.02;5.97;;;;;;;4.71;100.00;103254.91;6246966;28;20485;-77
2022/01/23 09:52:12;;;;;;;9.55;5.07;;;;;;;4.73;100.00;103260.16;6242080;28;20045;-76
2022/01/23 09:55:15;;;;;;;10.35;4.93;;;;;;;4.75;100.00;103256.69;6255565;28;20512;-77
2022/01/23 09:58:17;;;;;;;7.80;4.13;;;;;;;4.80;100.00;103251.53;6243890;28;20566;-76
2022/01/23 10:01:20;;;;;;;11.30;5.30;;;;;;;4.84;100.00;103250.69;6255679;28;20049;-76
2022/01/23 10:04:22;;;;;;;8.80;4.72;;;;;;;4.88;100.00;103249.00;6244255;28;20046;-76
2022/01/23 10:07:25;;;;;;;11.40;3.83;;;;;;;4.93;100.00;103258.63;6262746;28;20045;-76
2022/01/23 10:10:30;;;;;;;3.88;3.15;;;;;;;4.98;100.00;103261.28;6244340;28;20053;-76
2022/01/23 10:13:32;;;;;;;6.47;3.33;;;;;;;5.07;100.00;103251.81;6257577;28;20049;-76
2022/01/23 10:16:34;;;;;;;9.70;3.72;;;;;;;5.07;100.00;103267.44;6253836;28;20038;-76
2022/01/23 10:19:36;;;;;;;5.50;3.47;;;;;;;5.09;100.00;103265.75;6250806;28;20132;-76
2022/01/23 10:22:41;;;;;;;7.57;3.75;;;;;;;5.11;100.00;103273.56;6266557;28;20424;-76
2022/01/23 10:25:44;;;;;;;8.13;3.22;;;;;;;5.18;100.00;103266.66;6275870;28;20045;-75
2022/01/23 10:28:47;;;;;;;4.40;2.35;;;;;;;5.20;100.00;103278.88;6252301;28;20056;-76
2022/01/23 10:32:06;;;;;;;5.28;2.85;;;;;;;5.20;100.00;103271.06;6245802;28;20046;-76
2022/01/23 10:35:08;;;;;;;7.63;3.72;;;;;;;5.26;100.00;103268.50;6252406;28;20053;-76
2022/01/23 10:38:14;;;;;;;5.15;2.90;;;;;;;5.38;100.00;103269.47;6258267;28;20424;-76
2022/01/23 10:41:31;;;;;;;7.63;3.05;;;;;;;5.45;100.00;103266.03;6249897;28;20084;-76
2022/01/23 10:48:01;;;;;;;7.68;2.78;;;;;;;5.49;100.00;103263.47;6253613;28;20052;-76
2022/01/23 10:51:31;;;;;;;4.85;2.65;;;;;;;5.56;100.00;103257.47;6255184;28;20046;-76
2022/01/23 10:54:35;;;;;;;;;;;;;;;5.54;100.00;103264.41;6252104;28;20045;-76
2022/01/23 10:57:39;;;;;;;7.50;3.20;;;;;;;5.48;100.00;103253.91;6250113;28;19921;-76
2022/01/23 11:00:40;;;;;;;4.85;2.33;;;;;;;5.54;100.00;103259.19;6249378;28;20064;-76
2022/01/23 11:03:42;;;;;;;12.73;3.00;;;;;;;5.59;100.00;103264.44;6249695;28;20052;-76
2022/01/23 11:06:54;;;;;;;4.68;2.10;;;;;;;5.67;100.00;103254.94;6248976;28;20044;-76
2022/01/23 11:10:01;;;;;;;8.00;2.58;;;;;;;5.73;100.00;103251.50;6250128;28;20056;-76
2022/01/23 11:19:58;;;;;;;3.80;2.50;;;;;;;5.72;100.00;103253.25;6257851;28;20440;-76
2022/01/23 11:23:15;;;;;;;6.10;3.17;;;;;;;5.71;100.00;103253.22;6247476;28;20060;-76
2022/01/23 11:26:17;;;;;;;5.25;2.72;;;;;;;5.75;100.00;103244.56;6248111;28;20052;-75
2022/01/23 11:29:19;;;;;;;5.00;2.55;;;;;;;5.83;100.00;103251.56;6248383;28;20424;-76
2022/01/23 11:32:23;;;;;;;3.22;2.13;;;;;;;5.89;100.00;103250.72;6248535;28;20432;-77
2022/01/23 11:35:27;;;;;;;3.67;2.30;;;;;;;5.92;100.00;103242.97;6249382;28;20670;-76
2022/01/23 11:38:29;;;;;;;3.55;2.30;;;;;;;5.98;100.00;103253.44;6248982;28;20049;-76
2022/01/23 11:54:52;;;;;;;4.57;2.20;;;;;;;6.20;100.00;103232.69;6248827;28;20049;-75
2022/01/23 11:57:55;;;;;;;4.63;2.15;;;;;;;6.21;100.00;103231.81;6249010;28;20041;-76
2022/01/23 12:01:17;;;;;;;3.22;2.13;;;;;;;6.25;100.00;103223.13;6248173;28;20076;-75
2022/01/23 12:04:20;;;;;;;7.88;2.17;;;;;;;6.26;100.00;103230.94;6248772;28;20050;-76
2022/01/23 12:07:22;;;;;;;10.25;2.40;;;;;;;6.31;100.00;103215.31;6248549;28;20046;-76
2022/01/23 12:10:28;;;;;;;2.40;1.77;;;;;;;6.35;100.00;103219.69;6241390;28;20046;-76
2022/01/23 12:13:56;;;;;;;3.88;1.98;;;;;;;6.34;100.00;103215.31;6248056;28;20046;-76
2022/01/23 12:16:59;;;;;;;3.00;2.20;;;;;;;6.32;100.00;103217.94;6248560;28;20632;-76
2022/01/23 12:20:01;;;;;;;2.58;1.63;;;;;;;6.32;100.00;103222.28;6248061;28;20084;-76
2022/01/23 12:23:03;;;;;;;2.63;1.83;;;;;;;6.37;100.00;103228.41;6248073;28;20532;-75
2022/01/23 12:26:11;;;;;;;2.95;1.90;;;;;;;6.33;100.00;103230.13;6248097;28;20054;-76
2022/01/23 12:29:18;;;;;;;6.15;1.83;;;;;;;6.32;100.00;103237.97;6247457;28;20195;-76
2022/01/23 12:32:26;;;;;;;4.88;2.17;;;;;;;6.29;100.00;103225.75;6247113;28;20068;-76
2022/01/23 12:35:38;;;;;;;4.55;1.70;;;;;;;6.33;100.00;103221.44;6248207;28;20041;-76
2022/01/23 12:38:41;;;;;;;3.67;2.15;;;;;;;6.29;100.00;103228.38;6247932;28;20046;-76
2022/01/23 12:41:54;;;;;;;4.53;2.47;;;;;;;6.29;100.00;103220.53;6246381;28;20045;-76
2022/01/23 12:44:57;;;;;;;3.17;2.15;;;;;;;6.33;100.00;103221.44;6247523;28;20056;-76
2022/01/23 12:48:32;;;;;;;9.23;3.67;;;;;;;6.35;100.00;103220.53;6247693;28;20041;-76
2022/01/23 12:51:42;;;;;;;6.85;2.70;;;;;;;6.30;100.00;103227.50;6223146;28;20046;-76
2022/01/23 12:54:51;;;;;;;;;;;;;;;6.22;100.00;103221.38;6242666;28;20052;-75
2022/01/23 12:57:52;;;;;;;4.60;2.72;;;;;;;6.18;100.00;103217.00;6247610;28;19972;-75
2022/01/23 13:00:55;;;;;;;4.63;1.98;;;;;;;6.17;100.00;103210.03;6246890;28;20041;-76
2022/01/23 13:03:59;;;;;;;12.38;3.10;;;;;;;6.13;100.00;103210.88;6247534;28;20051;-76
2022/01/23 13:07:09;;;;;;;4.55;2.08;;;;;;;6.09;100.00;103207.41;6246492;28;20052;-75
2022/01/23 13:10:28;;;;;;;8.63;4.43;;;;;;;6.12;100.00;103208.25;6245461;28;20452;-76
2022/01/23 13:13:37;;;;;;;5.00;2.38;;;;;;;6.14;100.00;103214.38;6244229;28;20060;-76
2022/01/23 13:17:13;;;;;;;3.33;2.25;;;;;;;6.10;100.00;103211.75;6247367;28;20056;-75
2022/01/23 13:27:50;;;;;;;7.03;2.63;;;;;;;6.14;100.00;103211.78;6246933;28;20053;-75
2022/01/23 13:30:49;;;;;;;3.13;1.98;;;;;;;6.18;100.00;103213.53;6245935;28;20431;-76
2022/01/23 13:33:51;;;;;;;3.35;1.50;;;;;;;6.18;100.00;103218.75;6247059;28;20053;-78
2022/01/23 13:37:01;;;;;;;4.45;2.60;;;;;;;6.14;100.00;103215.25;6246775;28;20052;-76
2022/01/23 13:40:08;;;;;;;3.70;1.55;;;;;;;6.15;100.00;103209.16;6246481;28;20420;-75
2022/01/23 13:53:22;;;;;;;2.63;1.40;;;;;;;6.21;100.00;103217.00;6246139;28;20439;-75
2022/01/23 13:59:50;;;;;;;2.05;1.40;;;;;;;6.19;100.00;103213.53;6246091;28;20061;-75
2022/01/23 14:02:53;;;;;;;2.75;1.73;;;;;;;6.18;100.00;103209.19;6246266;28;20123;-75
2022/01/23 14:05:56;;;;;;;1.77;1.13;;;;;;;6.22;100.00;103210.94;6246372;28;20045;-75
2022/01/23 14:09:02;;;;;;;3.40;1.55;;;;;;;6.25;100.00;103210.06;6246656;28;20057;-75
2022/01/23 14:12:08;;;;;;;5.28;1.67;;;;;;;6.25;100.00;103218.78;6246001;28;20053;-75
2022/01/23 14:15:13;;;;;;;1.70;1.40;;;;;;;6.18;100.00;103210.94;6246693;28;20053;-75
2022/01/23 14:18:20;;;;;;;2.45;1.42;;;;;;;6.16;100.00;103220.47;6246144;28;20048;-75
2022/01/23 14:21:24;;;;;;;3.20;1.63;;;;;;;6.15;100.00;103223.94;6246332;28;20049;-75
2022/01/23 14:24:28;;;;;;;2.30;1.85;;;;;;;6.12;100.00;103219.56;6246259;28;20080;-76
2022/01/23 14:27:29;;;;;;;3.55;1.92;;;;;;;6.10;100.00;103219.59;6246503;28;20056;-75
2022/01/23 14:30:31;;;;;;;2.65;1.63;;;;;;;6.08;100.00;103223.03;6245328;28;20426;-75
2022/01/23 14:33:35;;;;;;;3.75;2.03;;;;;;;6.07;100.00;103216.94;6246094;28;20053;-75
2022/01/23 14:36:38;;;;;;;3.13;2.13;;;;;;;6.06;100.00;103232.59;6246134;28;20053;-75
2022/01/23 14:39:40;;;;;;;2.65;1.80;;;;;;;6.03;100.00;103225.63;6245926;28;20140;-75
2022/01/23 14:42:57;;;;;;;2.47;2.05;;;;;;;6.00;100.00;103232.59;6246219;28;20046;-75
2022/01/23 14:46:00;;;;;;;3.67;2.10;;;;;;;5.97;100.00;103235.16;6246336;28;20052;-76
2022/01/23 14:49:10;;;;;;;3.10;2.20;;;;;;;5.88;100.00;103230.72;6246175;28;20107;-75
2022/01/23 14:52:14;;;;;;;4.20;2.50;;;;;;;5.87;100.00;103233.34;6245756;28;20048;-75
2022/01/23 14:55:15;;;;;;;7.10;2.42;;;;;;;5.85;100.00;103236.78;6249392;28;20099;-76
2022/01/23 14:58:20;;;;;;;4.70;2.05;;;;;;;5.84;100.00;103239.41;6249887;28;20420;-75
2022/01/23 15:01:21;;;;;;;4.45;2.50;;;;;;;5.82;100.00;103231.56;6250081;28;20049;-75
2022/01/23 15:04:23;;;;;;;2.38;1.83;;;;;;;5.80;100.00;103243.72;6250034;28;20049;-75
2022/01/23 15:07:26;;;;;;;2.92;1.83;;;;;;;5.79;100.00;103247.19;6241384;28;20058;-75
2022/01/23 15:10:27;;;;;;;4.60;2.08;;;;;;;5.77;100.00;103254.16;6249568;28;20050;-75
2022/01/23 15:13:30;;;;;;;3.65;2.13;;;;;;;5.74;100.00;103253.25;6249762;28;20046;-75
2022/01/23 15:16:32;;;;;;;4.68;2.25;;;;;;;5.73;100.00;103259.34;6249660;28;20559;-74
2022/01/23 15:19:34;;;;;;;3.00;2.00;;;;;;;5.72;100.00;103255.84;6249277;28;20408;-75
2022/01/23 15:22:38;;;;;;;4.15;2.58;;;;;;;5.73;100.00;103265.44;6246249;28;20072;-75
2022/01/23 15:25:40;;;;;;;6.22;2.78;;;;;;;5.70;100.00;103260.19;6249443;28;20099;-74
2022/01/23 15:28:41;;;;;;;5.13;1.85;;;;;;;5.71;100.00;103264.53;6248996;28;20519;-75
2022/01/23 15:31:42;;;;;;;5.78;2.20;;;;;;;5.69;100.00;103268.00;6249452;28;20058;-75
2022/01/23 15:34:44;;;;;;;2.97;2.00;;;;;;;5.64;100.00;103270.56;6249475;28;20049;-75
2022/01/23 15:37:47;;;;;;;4.22;1.98;;;;;;;5.61;100.00;103270.53;6249169;28;20136;-75
2022/01/23 15:40:49;;;;;;;4.30;1.92;;;;;;;5.59;100.00;103270.53;6248973;28;20448;-75
2022/01/23 15:43:51;;;;;;;3.92;1.80;;;;;;;5.59;100.00;103273.16;6248971;28;20064;-75
2022/01/23 15:46:52;;;;;;;3.83;1.73;;;;;;;5.59;100.00;103269.66;6249057;28;20399;-74
2022/01/23 15:49:54;;;;;;;2.53;1.42;;;;;;;5.53;100.00;103278.28;6248751;28;20052;-75
2022/01/23 15:52:57;;;;;;;3.85;1.48;;;;;;;5.54;100.00;103277.47;6249073;28;20045;-75
2022/01/23 15:55:59;;;;;;;1.85;1.50;;;;;;;5.48;100.00;103276.50;6248742;28;20060;-75
2022/01/23 15:59:00;;;;;;;5.38;1.77;;;;;;;5.45;100.00;103274.78;6247341;28;20052;-74
2022/01/23 16:02:01;;;;;;;2.92;1.83;;;;;;;5.43;100.00;103278.22;6245442;28;20072;-74
2022/01/23 16:05:04;;;;;;;3.28;1.92;;;;;;;5.43;100.00;103276.47;6248408;28;20057;-75
2022/01/23 16:08:07;;;;;;;2.08;1.60;;;;;;;5.40;100.00;103275.56;6248321;28;20057;-75
2022/01/23 16:11:08;;;;;;;4.38;1.65;;;;;;;5.39;100.00;103277.31;6248125;28;20048;-74
2022/01/23 16:14:10;;;;;;;4.70;1.95;;;;;;;5.38;100.00;103270.34;6248163;28;20056;-74
2022/01/23 16:17:11;;;;;;;2.70;1.58;;;;;;;5.37;100.00;103265.13;6248176;28;20493;-75
2022/01/23 16:20:14;;;;;;;2.95;1.55;;;;;;;5.34;100.00;103276.38;6248277;28;20419;-74
2022/01/23 16:23:17;;;;;;;2.15;1.05;;;;;;;5.35;100.00;103273.78;6248125;28;20081;-74
2022/01/23 16:26:19;;;;;;;1.85;0.95;;;;;;;5.32;100.00;103278.13;6248397;28;20045;-74
2022/01/23 16:29:22;;;;;;;1.83;1.10;;;;;;;5.30;100.00;103277.22;6247597;28;20548;-75
2022/01/23 16:32:23;;;;;;;1.33;1.08;;;;;;;5.26;100.00;103278.06;6247912;28;20180;-74
2022/01/23 16:35:25;;;;;;;4.10;1.05;;;;;;;5.30;100.00;103285.03;6247851;28;20053;-76
2022/01/23 16:38:27;;;;;;;1.70;1.40;;;;;;;5.23;100.00;103286.72;6247696;28;20049;-74
2022/01/23 16:41:29;;;;;;;3.08;1.23;;;;;;;5.29;100.00;103286.78;6241245;28;20046;-75
2022/01/23 16:44:31;;;;;;;1.33;0.80;;;;;;;5.21;100.00;103283.22;6246872;28;20056;-75